Aérodrome :
LOGIN :

S'inscrire | Disclaimer

   EN    FR    IT 

 










Légende :    VFR   VFR Marginal   IFR   IFR Intensif   IFR Très Intensif
Visi : 
Plafond : 
>= 8 km
>= 3000ft
5 à 8 km
1000 à 3000 ft
1500m à 5 km
500 à 1000 ft
800 à 1500m
200 à 500 ft
< 800m
< 200 ft
Symboles :   Orages  Brouillard  Fortes neiges  Fortes précipitations  Vent > 20 kt
SIGMETs :   Divers  Orages  Givrage  Turbulence  Onde Orograph.  Cendres Volcan.







- Altitude de l'aérodrome : 268 ft
- Code IATA : BFS
- Voir les cartes d'approche


EGAA - Belfast Aldergrove

DERNIER METAR :
  • 191820Z 15009KT 9999 BKN041 14/11 Q1016

METARs EXPIRÉS :
  • 191750Z 15008KT 9999 FEW042 15/11 Q1016
  • 191720Z 16008KT CAVOK 15/11 Q1016
  • 191650Z 18007KT 9999 FEW020 15/11 Q1017
  • 191620Z 19007KT 9999 FEW028 16/11 Q1017
  • 191550Z 18008KT 9999 FEW024 17/11 Q1017

TAF TAF EGAA
Valide du 19 à 18h jusqu'au 20 à 18h UTC


191658Z 1918/2018 20010KT 9999 BKN020
TEMPO 1920/2001 8000 -RA BKN014
BECMG 2001/2004 8000 -RA BKN010
TEMPO 2004/2018 4000 RA BKN006
BECMG 2011/2015 33008KT
Pas de NOTAMs connus pour ce terrain.



MET'MAP, la Météo Aéronautique d'un coup d'oeil ! - Copyright ORBIFLY Décembre 2007 - Disclaimer

ORBIFLY MET'MAP TEAM :

Programmation & Développement : Alexandra Zaïnal
Conception & Développement : Baudouin d'Aumeries
Co-Programmation & Développement : Marc-Olivier Méhu
Soutien technique & logistique : Manuel Goepfert

Contact : metmap@orbifly.com




SOURCES & CREDITS :

   NOAA